Time;durP1;ratioP1;P1;durP2;ratioP2;P2;SDS_P1;SDS_P2;PMS_P1;PMS_P2;Temp;Humidity;BMP_temperature;BMP_pressure;BME280_temperature;BME280_humidity;BME280_pressure;Samples;Min_cycle;Max_cycle;Signal;HPM_P1;HPM_P2
2022/01/30 00:00:14;;;;;;;2.63;1.30;;;9.80;67.80;;;;;;5066081;28;20070;-64
2022/01/30 00:02:40;;;;;;;4.25;1.17;;;9.80;67.90;;;;;;5066200;28;20029;-68
2022/01/30 00:05:07;;;;;;;2.45;1.20;;;9.80;68.20;;;;;;5061929;28;20044;-68
2022/01/30 00:07:33;;;;;;;1.73;1.10;;;9.80;68.30;;;;;;5069885;28;20033;-68
2022/01/30 00:09:58;;;;;;;2.42;1.00;;;9.80;68.20;;;;;;5049591;28;20350;-67
2022/01/30 00:13:00;;;;;;;3.13;1.48;;;9.80;68.10;;;;;;5067166;28;20025;-68
2022/01/30 00:15:18;;;;;;;2.30;1.20;;;9.80;68.50;;;;;;5055778;28;20464;-69
2022/01/30 00:17:51;;;;;;;2.15;1.10;;;9.90;68.10;;;;;;5067458;28;20070;-68
2022/01/30 00:20:24;;;;;;;2.72;1.33;;;9.80;68.30;;;;;;5062693;28;20127;-67
2022/01/30 00:23:07;;;;;;;2.25;1.23;;;9.80;68.40;;;;;;5060865;28;20052;-67
2022/01/30 00:25:44;;;;;;;4.45;1.40;;;9.80;68.60;;;;;;5056454;28;20029;-66
2022/01/30 00:28:12;;;;;;;3.15;1.27;;;9.80;68.70;;;;;;5060142;28;20105;-66
2022/01/30 00:30:38;;;;;;;3.33;1.20;;;9.80;68.80;;;;;;5045745;28;20480;-67
2022/01/30 00:33:05;;;;;;;2.28;1.20;;;9.80;68.80;;;;;;5043157;28;20111;-68
2022/01/30 00:35:33;;;;;;;1.90;1.20;;;9.80;68.80;;;;;;5041084;28;20448;-69
2022/01/30 00:38:00;;;;;;;1.90;1.15;;;9.80;68.90;;;;;;5070273;28;20029;-67
2022/01/30 00:40:26;;;;;;;2.70;1.30;;;9.80;68.80;;;;;;5049944;28;20033;-66
2022/01/30 00:42:51;;;;;;;2.03;1.30;;;9.80;69.00;;;;;;5055207;28;20025;-67
2022/01/30 00:45:18;;;;;;;1.77;1.30;;;9.80;68.80;;;;;;5063989;28;20363;-68
2022/01/30 00:47:44;;;;;;;2.85;1.30;;;9.80;68.70;;;;;;5064617;28;20028;-69
2022/01/30 00:50:10;;;;;;;2.10;1.10;;;9.90;68.80;;;;;;5045700;28;20608;-68
2022/01/30 00:52:36;;;;;;;3.33;1.27;;;9.90;68.60;;;;;;5054146;28;20168;-68
2022/01/30 00:55:03;;;;;;;3.13;1.20;;;10.00;68.50;;;;;;5044897;28;20385;-69
2022/01/30 00:57:29;;;;;;;2.08;1.30;;;10.00;68.30;;;;;;5055335;28;20159;-67
2022/01/30 00:59:55;;;;;;;2.55;1.40;;;10.00;68.30;;;;;;5045232;28;20108;-64
2022/01/30 01:02:21;;;;;;;2.75;1.30;;;9.90;68.30;;;;;;5062158;28;20031;-67
2022/01/30 01:04:47;;;;;;;1.90;1.20;;;9.90;68.20;;;;;;5057639;28;20035;-66
2022/01/30 01:07:22;;;;;;;1.70;1.38;;;9.90;68.30;;;;;;5042582;28;20054;-67
2022/01/30 01:10:03;;;;;;;1.58;1.10;;;9.90;68.30;;;;;;5065057;28;20071;-69
2022/01/30 01:25:47;;;;;;;2.22;1.00;;;10.10;66.40;;;;;;5068132;28;20033;-67
2022/01/30 01:28:13;;;;;;;2.85;1.13;;;10.20;66.30;;;;;;5071880;28;20071;-66
2022/01/30 01:30:39;;;;;;;4.15;1.20;;;10.30;66.00;;;;;;5066978;28;20024;-68
2022/01/30 01:33:06;;;;;;;2.15;1.23;;;10.30;65.80;;;;;;5071327;28;20028;-68
2022/01/30 01:35:32;;;;;;;3.80;1.50;;;10.30;66.00;;;;;;5050544;28;20028;-69
2022/01/30 01:37:58;;;;;;;2.53;0.98;;;10.30;66.10;;;;;;5072414;28;20024;-64
2022/01/30 01:40:24;;;;;;;1.73;1.10;;;10.30;66.20;;;;;;5040256;28;20029;-67
2022/01/30 01:42:50;;;;;;;2.70;1.42;;;10.30;66.20;;;;;;5046621;28;20021;-68
2022/01/30 01:45:20;;;;;;;2.17;1.38;;;10.30;66.30;;;;;;5055899;28;20024;-68
2022/01/30 01:47:47;;;;;;;1.70;1.15;;;10.30;66.30;;;;;;5049471;28;20033;-68
2022/01/30 01:50:27;;;;;;;4.60;1.40;;;10.30;66.20;;;;;;5069206;28;20447;-68
2022/01/30 01:52:53;;;;;;;4.70;1.50;;;10.30;66.10;;;;;;5067475;28;20124;-67
2022/01/30 01:55:18;;;;;;;2.63;1.35;;;10.30;66.10;;;;;;5051684;28;20027;-67
2022/01/30 01:57:44;;;;;;;3.10;1.38;;;10.30;66.10;;;;;;5069078;28;20130;-68
2022/01/30 02:00:10;;;;;;;3.60;1.45;;;10.30;66.10;;;;;;5066187;28;20031;-67
2022/01/30 02:02:36;;;;;;;2.03;1.13;;;10.30;66.20;;;;;;5060582;28;20078;-67
2022/01/30 02:05:04;;;;;;;2.35;1.20;;;10.30;66.20;;;;;;5071449;28;20032;-64
2022/01/30 02:10:18;;;;;;;2.80;1.70;;;10.30;66.50;;;;;;5067294;28;20139;-66
2022/01/30 02:12:49;;;;;;;4.57;1.40;;;10.20;66.50;;;;;;5066766;28;20490;-67
2022/01/30 02:25:59;;;;;;;2.13;1.30;;;10.30;66.20;;;;;;5088655;28;20075;-71
2022/01/30 02:28:27;;;;;;;3.58;1.20;;;10.40;66.40;;;;;;5080807;28;20098;-67
2022/01/30 02:31:05;;;;;;;2.35;1.25;;;10.40;66.40;;;;;;5087172;28;20030;-65
2022/01/30 02:33:32;;;;;;;3.28;1.50;;;10.40;66.10;;;;;;5089715;28;20028;-64
2022/01/30 02:35:58;;;;;;;2.25;1.35;;;10.40;66.20;;;;;;5082632;28;20039;-69
2022/01/30 02:38:25;;;;;;;2.72;1.30;;;10.40;66.10;;;;;;5085967;28;20024;-68
2022/01/30 02:40:54;;;;;;;2.20;1.23;;;10.40;66.10;;;;;;5084194;28;20058;-69
2022/01/30 02:43:24;;;;;;;2.72;1.20;;;10.40;66.40;;;;;;5089666;28;20261;-69
2022/01/30 02:48:44;;;;;;;1.65;1.00;;;10.40;66.40;;;;;;5087331;28;20039;-69
2022/01/30 02:51:13;;;;;;;2.17;1.05;;;10.40;66.60;;;;;;5085184;28;20133;-68
2022/01/30 02:53:43;;;;;;;2.25;0.98;;;10.40;66.60;;;;;;5089669;28;20461;-68
2022/01/30 02:56:09;;;;;;;2.58;1.10;;;10.40;66.60;;;;;;5086623;28;20168;-68
2022/01/30 02:58:35;;;;;;;1.25;0.80;;;10.40;66.70;;;;;;5084048;28;20059;-67
2022/01/30 03:01:01;;;;;;;2.22;1.20;;;10.40;66.70;;;;;;5088117;28;20028;-64
2022/01/30 03:03:26;;;;;;;1.88;1.08;;;10.40;66.70;;;;;;5088722;28;20122;-66
2022/01/30 03:05:52;;;;;;;2.00;1.13;;;10.50;66.70;;;;;;5089374;28;20149;-67
2022/01/30 03:08:18;;;;;;;1.65;0.98;;;10.50;66.70;;;;;;5082673;28;20055;-69
2022/01/30 03:10:44;;;;;;;1.85;0.90;;;10.50;66.90;;;;;;5087263;28;20024;-67
2022/01/30 03:13:09;;;;;;;2.53;0.98;;;10.40;67.30;;;;;;5087303;28;20385;-67
2022/01/30 03:15:35;;;;;;;1.23;0.95;;;10.40;67.40;;;;;;5085332;28;20119;-67
2022/01/30 03:18:01;;;;;;;1.55;1.10;;;10.50;67.00;;;;;;5086678;28;20036;-66
2022/01/30 03:20:27;;;;;;;1.55;1.02;;;10.60;66.90;;;;;;5083670;28;20043;-66
2022/01/30 03:22:53;;;;;;;2.65;0.90;;;10.50;67.10;;;;;;5085091;28;20056;-67
2022/01/30 03:25:19;;;;;;;1.48;0.90;;;10.50;67.00;;;;;;5084864;28;20123;-67
2022/01/30 03:27:51;;;;;;;1.45;0.90;;;10.60;67.00;;;;;;5089933;28;20031;-67
2022/01/30 03:30:24;;;;;;;1.30;0.80;;;10.50;66.90;;;;;;5087881;28;20055;-67
2022/01/30 03:32:50;;;;;;;1.92;0.90;;;10.60;67.00;;;;;;5087061;28;20031;-67
2022/01/30 03:35:15;;;;;;;1.23;0.90;;;10.60;66.90;;;;;;5084270;28;20123;-67
2022/01/30 03:37:41;;;;;;;2.13;0.80;;;10.60;66.90;;;;;;5080610;28;20049;-67
2022/01/30 03:40:07;;;;;;;2.50;1.10;;;10.60;67.00;;;;;;5081157;28;20461;-66
2022/01/30 03:42:33;;;;;;;1.35;0.90;;;10.60;67.00;;;;;;5082229;28;20110;-67
2022/01/30 03:44:59;;;;;;;2.22;0.80;;;10.60;67.10;;;;;;5079764;28;20115;-67
2022/01/30 03:47:26;;;;;;;1.38;0.95;;;10.60;67.30;;;;;;5080271;28;20720;-67
2022/01/30 03:49:52;;;;;;;1.98;1.00;;;10.60;67.20;;;;;;5074374;28;20089;-67
2022/01/30 03:52:18;;;;;;;1.75;0.90;;;10.60;67.10;;;;;;5087147;28;20115;-68
2022/01/30 03:54:45;;;;;;;1.45;0.90;;;10.60;67.80;;;;;;5080870;28;20016;-67
2022/01/30 03:57:11;;;;;;;1.77;1.10;;;10.60;67.30;;;;;;5078261;28;20497;-66
2022/01/30 03:59:37;;;;;;;1.55;0.93;;;10.60;67.40;;;;;;5086831;28;20029;-66
2022/01/30 04:02:03;;;;;;;1.27;0.85;;;10.60;67.40;;;;;;5090217;28;20407;-68
2022/01/30 04:04:31;;;;;;;1.45;0.93;;;10.70;67.30;;;;;;5085126;28;20024;-68
2022/01/30 04:06:57;;;;;;;1.88;1.10;;;10.60;67.20;;;;;;5075484;28;20039;-65
2022/01/30 04:09:25;;;;;;;3.05;0.93;;;10.70;67.10;;;;;;5087445;28;20047;-66
2022/01/30 04:11:51;;;;;;;1.45;0.90;;;10.60;67.10;;;;;;5084365;28;20024;-68
2022/01/30 04:14:17;;;;;;;1.23;0.82;;;10.70;67.20;;;;;;5083550;28;20082;-67
2022/01/30 04:16:42;;;;;;;1.23;0.95;;;10.70;67.10;;;;;;5090802;28;20024;-68
2022/01/30 04:19:08;;;;;;;1.73;0.80;;;10.70;67.20;;;;;;5076695;28;20385;-65
2022/01/30 04:21:34;;;;;;;0.90;0.80;;;10.70;67.00;;;;;;5087072;28;20459;-67
2022/01/30 04:24:00;;;;;;;1.25;0.73;;;10.70;67.10;;;;;;5079956;28;20506;-66
2022/01/30 04:26:26;;;;;;;2.03;0.88;;;10.60;67.00;;;;;;5084906;28;20133;-67
2022/01/30 04:28:52;;;;;;;1.95;0.90;;;10.60;67.20;;;;;;5085273;28;20453;-67
2022/01/30 04:31:18;;;;;;;3.13;1.00;;;10.60;67.10;;;;;;5079824;28;20028;-67
2022/01/30 04:33:44;;;;;;;1.10;0.70;;;10.60;67.40;;;;;;5082248;28;20024;-67
2022/01/30 04:36:14;;;;;;;1.33;0.80;;;10.60;67.30;;;;;;5083047;28;20055;-66
2022/01/30 04:41:49;;;;;;;0.98;0.68;;;10.70;66.90;;;;;;5082264;28;20104;-66
2022/01/30 05:05:45;;;;;;;1.90;0.50;;;10.50;69.50;;;;;;5083738;28;20490;-67
2022/01/30 05:08:11;;;;;;;0.80;0.60;;;10.50;69.50;;;;;;5084251;28;20350;-65
2022/01/30 05:10:37;;;;;;;0.50;0.50;;;10.40;69.30;;;;;;5089235;28;20039;-67
2022/01/30 05:13:08;;;;;;;0.77;0.52;;;10.40;69.00;;;;;;5087284;28;20043;-66
2022/01/30 05:15:34;;;;;;;0.60;0.38;;;10.40;68.20;;;;;;5081780;28;20024;-68
2022/01/30 05:18:00;;;;;;;0.70;0.45;;;10.40;68.20;;;;;;5076155;28;20035;-66
2022/01/30 05:20:26;;;;;;;0.55;0.40;;;10.50;67.90;;;;;;5077711;28;20024;-67
2022/01/30 05:22:52;;;;;;;0.90;0.50;;;10.50;67.30;;;;;;5063088;28;20045;-67
2022/01/30 05:25:18;;;;;;;0.60;0.47;;;10.50;67.10;;;;;;5072429;28;20024;-67
2022/01/30 05:27:44;;;;;;;0.60;0.47;;;10.50;66.50;;;;;;5067021;28;20492;-68
2022/01/30 05:30:10;;;;;;;0.55;0.40;;;10.50;66.00;;;;;;5069964;28;20028;-66
2022/01/30 05:32:36;;;;;;;1.70;0.52;;;10.50;65.40;;;;;;5045349;28;20029;-68
2022/01/30 05:35:03;;;;;;;0.65;0.50;;;10.50;66.30;;;;;;5064034;28;20024;-68
2022/01/30 05:37:29;;;;;;;0.85;0.47;;;10.40;65.70;;;;;;5064309;28;20039;-68
2022/01/30 05:39:55;;;;;;;0.43;0.40;;;10.50;65.50;;;;;;5073273;28;20040;-68
2022/01/30 05:42:20;;;;;;;1.13;0.55;;;10.50;65.00;;;;;;5055628;28;20021;-68
2022/01/30 05:47:39;;;;;;;1.63;0.60;;;10.40;63.40;;;;;;5062105;28;20082;-68
2022/01/30 05:50:05;;;;;;;2.05;0.70;;;10.40;63.10;;;;;;5051708;28;20480;-68
2022/01/30 05:52:31;;;;;;;2.83;0.85;;;10.30;62.50;;;;;;5062941;28;20627;-68
2022/01/30 05:54:57;;;;;;;3.10;1.20;;;10.30;61.40;;;;;;5063741;28;20025;-67
2022/01/30 05:57:22;;;;;;;2.33;0.80;;;10.10;60.90;;;;;;5059979;28;20531;-68
2022/01/30 05:59:48;;;;;;;4.05;1.02;;;10.10;61.40;;;;;;5069511;28;20037;-68
2022/01/30 06:02:14;;;;;;;2.78;1.13;;;10.00;60.70;;;;;;5040753;28;20044;-66
2022/01/30 06:04:40;;;;;;;6.10;1.25;;;10.00;59.90;;;;;;5061012;28;20096;-67
2022/01/30 06:07:08;;;;;;;2.92;1.00;;;9.90;59.40;;;;;;5060952;28;20410;-69
2022/01/30 06:09:34;;;;;;;2.22;1.13;;;10.00;59.10;;;;;;5048183;28;20613;-67
2022/01/30 06:11:59;;;;;;;4.70;1.23;;;9.90;58.90;;;;;;5072870;28;20029;-68
2022/01/30 06:14:25;;;;;;;5.53;1.38;;;9.90;58.20;;;;;;5061964;28;20037;-67
2022/01/30 06:16:53;;;;;;;8.18;1.90;;;9.80;56.60;;;;;;5070606;28;20025;-68
2022/01/30 06:19:19;;;;;;;4.13;1.30;;;9.80;56.30;;;;;;5072417;28;20382;-67
2022/01/30 06:21:45;;;;;;;6.32;1.50;;;9.80;55.90;;;;;;5063503;28;20063;-67
2022/01/30 06:24:11;;;;;;;4.35;1.45;;;9.80;55.10;;;;;;5085632;28;20044;-67
2022/01/30 06:26:37;;;;;;;5.88;1.65;;;9.80;55.10;;;;;;5076717;28;20082;-67
2022/01/30 06:29:03;;;;;;;5.93;1.48;;;9.80;54.10;;;;;;5080939;28;20024;-68
2022/01/30 06:31:29;;;;;;;5.47;1.58;;;9.80;53.90;;;;;;5081824;28;20042;-66
2022/01/30 06:33:54;;;;;;;5.40;1.50;;;9.80;54.50;;;;;;5087072;28;20024;-66
2022/01/30 06:36:20;;;;;;;6.97;1.58;;;9.80;54.60;;;;;;5082682;28;20035;-66
2022/01/30 06:38:47;;;;;;;6.65;1.52;;;9.80;55.10;;;;;;5077171;28;20028;-66
2022/01/30 06:41:13;;;;;;;8.07;2.05;;;9.90;55.60;;;;;;5080711;28;20036;-66
2022/01/30 06:43:39;;;;;;;7.18;1.98;;;9.90;56.00;;;;;;5078096;28;20067;-66
2022/01/30 06:46:24;;;;;;;5.70;1.60;;;9.90;55.60;;;;;;5075453;28;20083;-67
2022/01/30 06:48:49;;;;;;;6.15;1.70;;;9.90;56.10;;;;;;5077398;28;20036;-68
2022/01/30 06:51:15;;;;;;;5.25;1.55;;;9.90;56.30;;;;;;5084963;28;20047;-66
2022/01/30 06:53:41;;;;;;;5.80;1.77;;;9.90;55.80;;;;;;5079088;28;20025;-66
2022/01/30 06:56:07;;;;;;;7.28;1.80;;;9.90;56.20;;;;;;5083838;28;20047;-68
2022/01/30 06:58:33;;;;;;;5.28;1.92;;;9.90;56.20;;;;;;5080670;28;20020;-65
2022/01/30 07:00:59;;;;;;;5.15;1.45;;;9.90;56.30;;;;;;5083874;28;20439;-66
2022/01/30 07:03:24;;;;;;;5.68;1.70;;;9.90;56.30;;;;;;5085807;28;20487;-66
2022/01/30 07:05:50;;;;;;;6.65;1.70;;;9.90;56.30;;;;;;5078549;28;20044;-67
2022/01/30 07:08:16;;;;;;;4.43;1.48;;;9.90;56.30;;;;;;5085643;28;20395;-67
2022/01/30 07:10:42;;;;;;;6.32;1.30;;;9.90;56.30;;;;;;5075704;28;20382;-67
2022/01/30 07:13:10;;;;;;;6.07;1.90;;;9.80;56.90;;;;;;5086091;28;20058;-67
2022/01/30 07:15:35;;;;;;;6.40;1.67;;;9.90;55.70;;;;;;5086298;28;20055;-65
2022/01/30 07:18:01;;;;;;;7.05;1.63;;;10.00;55.30;;;;;;5082584;28;20473;-67
2022/01/30 07:20:27;;;;;;;5.70;1.58;;;10.00;54.60;;;;;;5085381;28;20027;-66
2022/01/30 07:22:53;;;;;;;5.68;1.73;;;10.00;55.00;;;;;;5071436;28;20990;-68
2022/01/30 07:25:19;;;;;;;5.00;1.50;;;10.10;55.00;;;;;;5060196;28;20041;-66
2022/01/30 07:27:44;;;;;;;6.28;1.75;;;10.10;54.10;;;;;;5060268;28;20556;-67
2022/01/30 07:30:10;;;;;;;5.60;1.50;;;10.10;53.60;;;;;;5067017;28;20032;-66
2022/01/30 07:32:36;;;;;;;3.92;1.58;;;10.10;53.60;;;;;;5054743;28;20047;-66
2022/01/30 07:35:02;;;;;;;6.72;1.73;;;10.10;52.80;;;;;;5039441;28;20024;-69
2022/01/30 07:37:28;;;;;;;5.35;1.52;;;10.10;52.00;;;;;;5069987;28;20044;-70
2022/01/30 07:39:58;;;;;;;5.38;1.52;;;10.10;51.80;;;;;;5070644;28;20466;-67
2022/01/30 07:42:25;;;;;;;6.30;2.22;;;10.10;51.60;;;;;;5067333;28;20455;-68
2022/01/30 07:44:52;;;;;;;8.65;2.58;;;10.30;51.50;;;;;;5064101;28;20033;-65
2022/01/30 07:47:19;;;;;;;5.00;2.10;;;12.60;48.90;;;;;;5069510;28;20047;-67
2022/01/30 07:49:49;;;;;;;9.45;3.05;;;14.50;42.90;;;;;;5062279;28;20029;-66
2022/01/30 07:52:15;;;;;;;5.50;2.83;;;14.20;42.00;;;;;;5050136;28;20028;-67
2022/01/30 07:54:40;;;;;;;7.20;2.90;;;15.60;41.00;;;;;;5056873;28;20033;-67
2022/01/30 07:57:06;;;;;;;10.00;3.67;;;17.10;37.20;;;;;;5058886;28;20028;-67
2022/01/30 07:59:32;;;;;;;6.68;2.72;;;18.10;36.00;;;;;;5043645;28;20090;-67
2022/01/30 08:01:58;;;;;;;10.40;3.38;;;18.90;34.20;;;;;;5061720;28;20470;-67
2022/01/30 08:04:26;;;;;;;6.72;2.63;;;18.80;33.30;;;;;;5059081;28;20402;-65
2022/01/30 08:06:51;;;;;;;8.85;3.50;;;18.10;33.20;;;;;;5063275;28;20046;-66
2022/01/30 08:09:17;;;;;;;7.68;2.60;;;16.50;34.70;;;;;;5057955;28;20112;-67
2022/01/30 08:11:43;;;;;;;7.63;2.00;;;15.20;36.80;;;;;;5043297;28;20319;-67
2022/01/30 08:14:08;;;;;;;6.32;1.88;;;14.40;38.10;;;;;;5048784;28;20082;-67
2022/01/30 08:16:34;;;;;;;6.72;2.03;;;13.70;39.10;;;;;;5051141;28;20028;-66
2022/01/30 08:19:00;;;;;;;6.28;1.75;;;13.10;39.80;;;;;;5074453;28;20075;-67
2022/01/30 08:21:26;;;;;;;4.88;1.95;;;12.80;41.40;;;;;;5071428;28;20142;-66
2022/01/30 08:23:51;;;;;;;5.45;1.77;;;12.50;41.30;;;;;;5065871;28;20417;-66
2022/01/30 08:26:17;;;;;;;6.75;2.10;;;12.20;42.30;;;;;;5056120;28;20464;-67
2022/01/30 08:28:43;;;;;;;5.78;1.90;;;12.00;41.40;;;;;;5064580;28;20048;-66
2022/01/30 08:31:09;;;;;;;8.15;2.33;;;11.90;41.60;;;;;;5045801;28;20378;-68
2022/01/30 08:33:34;;;;;;;6.63;2.45;;;11.70;41.00;;;;;;5049292;28;20033;-66
2022/01/30 08:36:01;;;;;;;11.70;2.10;;;11.70;41.40;;;;;;5066403;28;20028;-68
2022/01/30 08:38:27;;;;;;;7.03;1.90;;;11.50;41.40;;;;;;5062847;28;20028;-67
2022/01/30 08:40:53;;;;;;;7.10;1.83;;;11.30;42.00;;;;;;5059869;28;20082;-66
2022/01/30 08:43:21;;;;;;;6.43;1.83;;;11.20;41.40;;;;;;5062747;28;20356;-66
2022/01/30 08:45:49;;;;;;;7.40;1.92;;;11.20;42.20;;;;;;5057664;28;20071;-65
2022/01/30 08:48:15;;;;;;;4.30;1.65;;;11.20;41.00;;;;;;5068045;28;20036;-65
2022/01/30 08:50:41;;;;;;;7.13;1.90;;;11.20;41.80;;;;;;5070602;28;20422;-65
2022/01/30 08:53:06;;;;;;;7.00;2.08;;;11.20;40.80;;;;;;5064741;28;20492;-67
2022/01/30 08:55:33;;;;;;;28.55;2.45;;;11.30;40.50;;;;;;5046851;28;20041;-65
2022/01/30 08:58:07;;;;;;;8.75;1.77;;;11.20;39.50;;;;;;5062050;28;20036;-68
2022/01/30 09:00:33;;;;;;;5.30;1.83;;;11.30;39.50;;;;;;5067240;28;20498;-66
2022/01/30 09:02:59;;;;;;;8.00;1.90;;;11.40;38.90;;;;;;5056954;28;20032;-68
2022/01/30 09:05:25;;;;;;;9.98;1.70;;;11.20;38.80;;;;;;5062885;28;20479;-67
2022/01/30 09:07:51;;;;;;;10.75;1.85;;;11.20;38.60;;;;;;5046476;28;20036;-68
2022/01/30 09:10:17;;;;;;;9.63;2.15;;;11.30;38.90;;;;;;5058565;28;20070;-66
2022/01/30 09:12:42;;;;;;;7.22;1.70;;;11.20;38.80;;;;;;5040218;28;20091;-67
2022/01/30 09:15:15;;;;;;;7.25;1.83;;;11.10;38.70;;;;;;5053163;28;20029;-66
2022/01/30 09:17:41;;;;;;;7.30;1.88;;;11.00;38.20;;;;;;5064042;28;20028;-65
2022/01/30 09:20:08;;;;;;;8.77;2.25;;;11.00;38.50;;;;;;5047604;28;20040;-67
2022/01/30 09:22:33;;;;;;;7.22;2.35;;;11.10;37.70;;;;;;5068390;28;20040;-67
2022/01/30 09:40:18;;;;;;;6.93;2.25;;;11.20;35.70;;;;;;5069808;27;20385;-70
2022/01/30 09:42:45;;;;;;;7.50;1.88;;;11.80;36.20;;;;;;5060956;28;20044;-69
2022/01/30 09:45:15;;;;;;;9.10;2.70;;;11.70;36.00;;;;;;5055609;28;20060;-70
2022/01/30 09:47:42;;;;;;;6.90;2.63;;;11.70;36.60;;;;;;5051395;28;20068;-70
2022/01/30 09:50:09;;;;;;;7.78;3.10;;;11.80;36.70;;;;;;5056414;28;20403;-70
2022/01/30 09:52:36;;;;;;;15.75;5.85;;;11.90;37.00;;;;;;5050860;28;20072;-68
2022/01/30 09:55:08;;;;;;;19.98;7.97;;;11.90;37.30;;;;;;5052875;28;20021;-69
2022/01/30 09:57:34;;;;;;;11.48;5.13;;;12.10;37.30;;;;;;5036231;28;20386;-69
2022/01/30 10:00:00;;;;;;;8.82;3.45;;;12.10;38.00;;;;;;5054366;28;20026;-70
2022/01/30 10:02:26;;;;;;;7.28;2.10;;;12.20;37.00;;;;;;5055328;28;20032;-74
2022/01/30 10:04:53;;;;;;;8.15;2.03;;;12.10;36.30;;;;;;5036979;28;20025;-71
2022/01/30 10:07:21;;;;;;;7.55;2.40;;;12.10;35.80;;;;;;5054804;28;20021;-70
2022/01/30 10:09:49;;;;;;;9.63;2.50;;;12.10;35.90;;;;;;5049718;28;20049;-70
2022/01/30 10:12:20;;;;;;;7.75;2.17;;;12.10;36.30;;;;;;5034816;28;20386;-71
2022/01/30 10:14:55;;;;;;;8.25;2.70;;;12.00;36.10;;;;;;5051138;28;20588;-69
2022/01/30 10:17:36;;;;;;;6.43;2.28;;;11.90;36.80;;;;;;5055732;28;20031;-69
2022/01/30 10:20:03;;;;;;;12.30;2.42;;;12.00;36.30;;;;;;5050918;28;20105;-68
2022/01/30 10:22:29;;;;;;;11.00;2.72;;;12.00;36.50;;;;;;5029968;28;20050;-74
2022/01/30 10:24:56;;;;;;;7.97;2.75;;;12.00;36.10;;;;;;5052649;28;20069;-71
2022/01/30 10:27:26;;;;;;;13.90;2.88;;;12.00;36.20;;;;;;5054365;28;20030;-69
2022/01/30 10:30:05;;;;;;;10.52;2.35;;;12.00;36.00;;;;;;5038524;28;20039;-70
2022/01/30 10:32:32;;;;;;;6.40;2.38;;;11.90;35.70;;;;;;5054426;28;20029;-73
2022/01/30 10:35:07;;;;;;;13.88;2.53;;;11.90;36.00;;;;;;5051920;28;20104;-69
2022/01/30 10:37:36;;;;;;;9.10;2.90;;;11.90;36.10;;;;;;5055478;28;20047;-69
2022/01/30 10:40:09;;;;;;;9.60;2.60;;;11.90;35.90;;;;;;5049035;28;20049;-68
2022/01/30 10:42:48;;;;;;;9.18;2.20;;;11.80;35.80;;;;;;5036383;28;20048;-71
2022/01/30 10:45:33;;;;;;;9.80;2.60;;;11.90;35.60;;;;;;5037594;28;20022;-69
2022/01/30 10:48:13;;;;;;;7.13;2.65;;;11.90;35.60;;;;;;5039587;28;20038;-70
2022/01/30 10:50:42;;;;;;;8.57;2.00;;;11.80;36.30;;;;;;5044121;27;20394;-69
2022/01/30 10:53:21;;;;;;;7.50;2.28;;;11.70;35.60;;;;;;5044986;28;20112;-67
2022/01/30 10:55:48;;;;;;;9.10;2.30;;;11.70;35.60;;;;;;5017688;28;20078;-70
2022/01/30 10:58:18;;;;;;;10.63;2.80;;;11.60;35.50;;;;;;5039531;28;20033;-71
2022/01/30 11:00:49;;;;;;;9.20;2.33;;;11.50;36.00;;;;;;5046645;28;20471;-72
2022/01/30 11:03:55;;;;;;;11.15;2.60;;;11.50;35.60;;;;;;5039430;28;20033;-66
2022/01/30 11:06:21;;;;;;;6.97;2.15;;;11.50;35.50;;;;;;5033234;28;20496;-69
2022/01/30 11:08:50;;;;;;;7.20;2.65;;;11.50;35.90;;;;;;5053308;28;20037;-68
2022/01/30 11:11:37;;;;;;;9.48;2.17;;;11.50;35.80;;;;;;5060764;28;20059;-69
2022/01/30 11:19:15;;;;;;;10.63;2.22;;;11.70;35.60;;;;;;5076583;28;20060;-70
2022/01/30 11:21:42;;;;;;;9.00;2.30;;;11.70;35.60;;;;;;5073538;28;20087;-71
2022/01/30 11:24:10;;;;;;;8.25;2.35;;;11.80;35.30;;;;;;5071455;28;20040;-69
2022/01/30 11:26:36;;;;;;;8.30;2.42;;;11.70;35.30;;;;;;5070432;28;20035;-66
2022/01/30 11:29:02;;;;;;;7.85;2.63;;;11.70;35.80;;;;;;5062696;28;20505;-66
2022/01/30 11:31:28;;;;;;;10.80;2.60;;;11.70;35.90;;;;;;5045351;28;20036;-71
2022/01/30 11:33:55;;;;;;;6.40;2.38;;;11.60;36.00;;;;;;5059681;28;20125;-75
2022/01/30 11:36:23;;;;;;;10.82;2.13;;;11.70;36.00;;;;;;5060831;28;20042;-69
2022/01/30 11:38:50;;;;;;;6.28;2.22;;;11.80;36.10;;;;;;5048235;28;20120;-66
2022/01/30 11:41:18;;;;;;;9.52;2.38;;;11.90;35.80;;;;;;5025852;28;20066;-68
2022/01/30 11:44:18;;;;;;;8.15;2.78;;;11.80;35.10;;;;;;5038192;28;20029;-73
2022/01/30 11:47:04;;;;;;;7.85;1.67;;;11.70;35.00;;;;;;5021458;28;20029;-71
2022/01/30 11:49:42;;;;;;;11.00;2.30;;;11.50;35.20;;;;;;5015440;28;20041;-67
2022/01/30 11:52:14;;;;;;;7.35;2.05;;;11.30;36.30;;;;;;5036046;28;20061;-69
2022/01/30 11:54:44;;;;;;;7.57;2.25;;;11.20;36.60;;;;;;5032874;28;20041;-69
2022/01/30 11:57:21;;;;;;;7.35;2.53;;;11.10;36.70;;;;;;5032154;28;20032;-72
2022/01/30 11:59:49;;;;;;;6.30;2.30;;;11.20;36.70;;;;;;5019518;28;20128;-76
2022/01/30 12:02:34;;;;;;;6.25;2.22;;;11.30;36.90;;;;;;5040646;28;20025;-72
2022/01/30 12:05:10;;;;;;;7.75;2.50;;;11.30;36.90;;;;;;5045571;28;20093;-71
2022/01/30 12:07:47;;;;;;;8.85;2.63;;;11.30;37.30;;;;;;5021761;28;20106;-72
2022/01/30 12:10:21;;;;;;;9.20;2.03;;;11.40;37.30;;;;;;5049162;27;20025;-70
2022/01/30 12:12:48;;;;;;;8.65;2.58;;;11.40;37.10;;;;;;5060902;27;20037;-70
2022/01/30 12:15:46;;;;;;;7.30;1.80;;;11.40;37.50;;;;;;5041001;28;20534;-69
2022/01/30 12:18:13;;;;;;;7.80;2.30;;;11.20;37.60;;;;;;5023060;28;20036;-67
2022/01/30 12:20:59;;;;;;;7.90;2.85;;;11.10;37.80;;;;;;5035922;28;20486;-69
2022/01/30 12:23:25;;;;;;;8.50;1.85;;;11.10;38.20;;;;;;5040781;28;20217;-66
2022/01/30 12:25:58;;;;;;;9.32;2.35;;;11.10;38.10;;;;;;5043335;28;20104;-68
2022/01/30 12:28:48;;;;;;;11.68;2.47;;;11.00;38.00;;;;;;5035076;28;20463;-71
2022/01/30 12:31:34;;;;;;;7.50;1.95;;;11.10;37.90;;;;;;5048638;28;20500;-69
2022/01/30 12:34:11;;;;;;;10.10;2.47;;;11.30;37.00;;;;;;5044577;28;20402;-69
2022/01/30 12:36:52;;;;;;;9.65;2.30;;;11.40;36.90;;;;;;5026160;28;20053;-70
2022/01/30 12:39:22;;;;;;;7.15;2.40;;;11.30;37.60;;;;;;5037938;28;20823;-70
2022/01/30 12:41:50;;;;;;;11.25;2.67;;;11.40;37.60;;;;;;5043038;28;20483;-68
2022/01/30 12:44:20;;;;;;;16.20;2.70;;;11.50;37.10;;;;;;5020663;28;20726;-70
2022/01/30 12:46:50;;;;;;;11.48;2.22;;;11.40;36.80;;;;;;5037560;28;20104;-72
2022/01/30 12:49:20;;;;;;;7.90;2.58;;;11.40;36.80;;;;;;5038926;28;20623;-70
2022/01/30 12:51:51;;;;;;;6.15;2.20;;;11.40;37.20;;;;;;5021955;28;20502;-68
2022/01/30 12:54:19;;;;;;;6.65;2.17;;;11.40;37.50;;;;;;5037506;27;20041;-69
2022/01/30 12:56:47;;;;;;;9.15;2.50;;;11.30;37.30;;;;;;5041992;28;20362;-69
2022/01/30 12:59:15;;;;;;;10.77;3.00;;;11.20;37.20;;;;;;5016181;28;20371;-68
2022/01/30 13:01:44;;;;;;;11.35;2.67;;;11.20;37.50;;;;;;5039100;28;20026;-68
2022/01/30 13:04:15;;;;;;;9.43;2.80;;;11.30;37.20;;;;;;5037047;28;20044;-68
2022/01/30 13:06:49;;;;;;;9.05;2.72;;;11.30;37.20;;;;;;5035391;28;20022;-68
2022/01/30 13:09:26;;;;;;;10.27;2.30;;;11.20;37.60;;;;;;5038427;28;20037;-64
2022/01/30 13:11:53;;;;;;;8.57;2.45;;;11.20;37.90;;;;;;5035985;28;20067;-66
2022/01/30 13:14:19;;;;;;;9.27;2.60;;;11.20;37.80;;;;;;5042975;28;20038;-64
2022/01/30 13:16:50;;;;;;;10.00;2.80;;;11.30;38.00;;;;;;5035703;28;20100;-67
2022/01/30 13:19:35;;;;;;;12.25;2.00;;;11.30;37.20;;;;;;5032442;28;20214;-67
2022/01/30 13:22:04;;;;;;;7.18;2.20;;;11.30;37.00;;;;;;5039083;28;20443;-65
2022/01/30 13:24:30;;;;;;;10.55;2.50;;;11.30;37.50;;;;;;5037400;28;20066;-64
2022/01/30 13:27:06;;;;;;;9.65;2.20;;;11.30;37.60;;;;;;5113521;27;20470;-65
2022/01/30 13:29:36;;;;;;;9.68;2.83;;;11.10;37.90;;;;;;5042430;28;20428;-67
2022/01/30 13:32:10;;;;;;;9.00;2.33;;;11.00;38.80;;;;;;5036196;28;20040;-66
2022/01/30 13:34:37;;;;;;;11.60;3.00;;;11.00;38.90;;;;;;5034395;28;20531;-65
2022/01/30 13:37:06;;;;;;;10.55;2.13;;;11.00;39.10;;;;;;5032642;28;20097;-65
2022/01/30 13:39:41;;;;;;;7.72;2.05;;;11.00;38.50;;;;;;5035700;28;20077;-65
2022/01/30 13:42:44;;;;;;;8.82;2.70;;;10.90;38.30;;;;;;5039225;28;20085;-68
2022/01/30 13:47:54;;;;;;;7.18;2.53;;;11.00;38.30;;;;;;5038004;28;20061;-66
2022/01/30 13:50:31;;;;;;;6.85;2.13;;;10.90;38.90;;;;;;5039746;28;20026;-65
2022/01/30 13:53:06;;;;;;;8.27;2.92;;;10.80;39.10;;;;;;5030612;28;20078;-64
2022/01/30 13:55:34;;;;;;;10.80;2.33;;;10.70;39.40;;;;;;5038732;28;20026;-68
2022/01/30 13:58:00;;;;;;;8.70;2.30;;;10.60;39.20;;;;;;5042330;28;20033;-69
2022/01/30 14:00:34;;;;;;;9.13;2.38;;;10.50;40.20;;;;;;5038415;28;20107;-68
2022/01/30 14:03:05;;;;;;;8.63;2.83;;;10.50;39.50;;;;;;5023850;28;20021;-72
2022/01/30 14:05:33;;;;;;;8.45;2.58;;;10.50;39.50;;;;;;5042347;28;20467;-68
2022/01/30 14:08:00;;;;;;;7.07;2.08;;;10.50;39.50;;;;;;5039856;28;20848;-66
2022/01/30 14:10:31;;;;;;;10.30;2.83;;;10.50;39.70;;;;;;5045531;28;20021;-67
2022/01/30 14:13:05;;;;;;;6.10;2.15;;;10.60;39.60;;;;;;5024826;28;20483;-67
2022/01/30 14:15:35;;;;;;;8.75;2.15;;;10.70;39.60;;;;;;5040430;28;20029;-66